McChord AFB, Washington
Current Conditions -  °F | °C
As of 5:58 PM on Thursday 20 Nov 2014 (Local Time) from KGRF Reporting Station
Drizzle Drizzle  
Wind Chill: 49°   Ceiling: 4300
Heat Index: 49°   Visibility: 10mi
Dew Point: 49°   Wind: 0mph
Humidity: 99%   Direction: NA
Pressure: 29.93"   Gusts: NA
Location:  47.1264°N, 122.555°W
Report Text: KGRF 210158Z AUTO 00000KT 10SM DZ OVC043 10/09 A2993 RMK AO2 SLP140 P0000 T00950094 $
Loading
Personal Weather Stations






























Interactive Weather Map New forecast layout! Learn more

10-Day Weather Forecast

Advertisements
Track Severe Weather on mobile